createdAt,value
2016-02-11T00:00:26.709Z,985.1
2016-02-11T00:01:26.727Z,985.09
2016-02-11T00:02:26.729Z,985.11
2016-02-11T00:03:26.763Z,985.13
2016-02-11T00:04:26.782Z,985.13
2016-02-11T00:05:26.785Z,985.14
2016-02-11T00:06:26.804Z,985.1
2016-02-11T00:07:26.822Z,985.16
2016-02-11T00:08:26.840Z,985.14
2016-02-11T00:09:26.859Z,985.17
2016-02-11T00:10:26.877Z,985.13
2016-02-11T00:11:26.896Z,985.2
2016-02-11T00:12:26.913Z,985.12
2016-02-11T00:13:26.916Z,985.13
2016-02-11T00:14:27.140Z,985.1
2016-02-11T00:15:26.955Z,985.12
2016-02-11T00:16:26.973Z,985.09
2016-02-11T00:17:26.993Z,985.13
2016-02-11T00:18:27.011Z,985.13
2016-02-11T00:19:27.029Z,985.16
2016-02-11T00:20:27.048Z,985.16
2016-02-11T00:21:27.066Z,985.18
2016-02-11T00:22:27.085Z,985.17
2016-02-11T00:23:27.104Z,985.21
2016-02-11T00:24:27.107Z,985.24
2016-02-11T00:25:27.143Z,985.24
2016-02-11T00:26:27.145Z,985.28
2016-02-11T00:27:27.163Z,985.27
2016-02-11T00:28:27.182Z,985.28
2016-02-11T00:29:27.200Z,985.29
2016-02-11T00:30:27.223Z,985.27
2016-02-11T00:31:27.240Z,985.28
2016-02-11T00:32:27.264Z,985.27
2016-02-11T00:33:27.273Z,985.3
2016-02-11T00:34:27.280Z,985.33
2016-02-11T00:35:27.307Z,985.32
2016-02-11T00:36:27.326Z,985.3
2016-02-11T00:37:27.328Z,985.35
2016-02-11T00:38:27.347Z,985.31
2016-02-11T00:39:27.366Z,985.32
2016-02-11T00:40:27.384Z,985.33
2016-02-11T00:41:27.403Z,985.41
2016-02-11T00:42:27.422Z,985.36
2016-02-11T00:43:27.441Z,985.37
2016-02-11T00:44:27.458Z,985.41
2016-02-11T00:45:27.477Z,985.42
2016-02-11T00:46:27.510Z,985.42
2016-02-11T00:47:27.499Z,985.42
2016-02-11T00:48:27.516Z,985.46
2016-02-11T00:49:27.535Z,985.48
2016-02-11T00:50:27.569Z,985.46
2016-02-11T00:51:27.573Z,985.53
2016-02-11T00:52:27.592Z,985.53
2016-02-11T00:53:27.610Z,985.56
2016-02-11T00:54:27.628Z,985.55
2016-02-11T00:55:27.648Z,985.55
2016-02-11T00:56:27.666Z,985.55
2016-02-11T00:57:27.684Z,985.57
2016-02-11T00:58:27.687Z,985.63
2016-02-11T00:59:27.722Z,985.61
2016-02-11T01:00:27.725Z,985.6
2016-02-11T01:01:27.744Z,985.61
2016-02-11T01:02:27.761Z,985.63
2016-02-11T01:03:27.780Z,985.62
2016-02-11T01:04:27.798Z,985.61
2016-02-11T01:05:27.804Z,985.66
2016-02-11T01:06:27.839Z,985.69
2016-02-11T01:07:27.856Z,985.69
2016-02-11T01:08:27.860Z,985.74
2016-02-11T01:09:27.879Z,985.71
2016-02-11T01:10:27.897Z,985.71
2016-02-11T01:11:27.931Z,985.75
2016-02-11T01:12:27.934Z,985.73
2016-02-11T01:13:27.951Z,985.76
2016-02-11T01:14:27.970Z,985.8
2016-02-11T01:15:27.989Z,985.81
2016-02-11T01:16:28.007Z,985.84
2016-02-11T01:17:28.010Z,985.82
2016-02-11T01:18:28.028Z,985.87
2016-02-11T01:19:28.047Z,985.9
2016-02-11T01:20:28.065Z,985.87
2016-02-11T01:21:28.084Z,985.86
2016-02-11T01:22:28.102Z,985.91
2016-02-11T01:23:28.121Z,985.94
2016-02-11T01:24:28.140Z,985.92
2016-02-11T01:25:28.146Z,985.87
2016-02-11T01:26:28.165Z,985.85
2016-02-11T01:27:28.183Z,985.9
2016-02-11T01:28:28.201Z,985.91
2016-02-11T01:29:28.219Z,985.87
2016-02-11T01:30:28.238Z,985.89
2016-02-11T01:31:28.256Z,985.93
2016-02-11T01:32:28.274Z,985.91
2016-02-11T01:33:28.281Z,985.99
2016-02-11T01:34:28.299Z,985.92
2016-02-11T01:35:28.317Z,986
2016-02-11T01:36:28.337Z,985.96
2016-02-11T01:37:28.355Z,985.96
2016-02-11T01:38:28.369Z,985.97
2016-02-11T01:39:28.388Z,985.99
2016-02-11T01:40:28.406Z,986.01
2016-02-11T01:41:28.425Z,986.09
2016-02-11T01:42:28.443Z,986.1
2016-02-11T01:43:28.446Z,986.1
2016-02-11T01:44:28.479Z,986.1
2016-02-11T01:45:28.483Z,986.17
2016-02-11T01:46:28.500Z,986.16
2016-02-11T01:47:28.519Z,986.19
2016-02-11T01:48:28.537Z,986.14
2016-02-11T01:49:28.555Z,986.13
2016-02-11T01:50:28.573Z,986.14
2016-02-11T01:51:28.593Z,986.06
2016-02-11T01:52:28.610Z,986.07
2016-02-11T01:53:28.629Z,986.11
2016-02-11T01:54:28.646Z,986.08
2016-02-11T01:55:28.649Z,986.11
2016-02-11T01:56:28.669Z,986.11
2016-02-11T01:57:28.703Z,986.07
2016-02-11T01:58:28.706Z,986.12
2016-02-11T01:59:28.724Z,986.07
2016-02-11T02:00:28.742Z,986.13
2016-02-11T02:01:28.761Z,986.13
2016-02-11T02:02:28.780Z,986.13
2016-02-11T02:03:28.798Z,986.22
2016-02-11T02:04:28.801Z,986.24
2016-02-11T02:05:28.819Z,986.26
2016-02-11T02:06:28.838Z,986.28
2016-02-11T02:07:28.856Z,986.3
2016-02-11T02:08:28.875Z,986.3
2016-02-11T02:09:28.893Z,986.34
2016-02-11T02:10:28.911Z,986.35
2016-02-11T02:11:28.929Z,986.41
2016-02-11T02:12:28.932Z,986.38
2016-02-11T02:13:28.949Z,986.39
2016-02-11T02:14:28.968Z,986.39
2016-02-11T02:15:28.987Z,986.41
2016-02-11T02:16:29.005Z,986.44
2016-02-11T02:17:29.024Z,986.41
2016-02-11T02:18:29.043Z,986.47
2016-02-11T02:19:29.061Z,986.44
2016-02-11T02:20:29.080Z,986.42
2016-02-11T02:21:29.082Z,986.49
2016-02-11T02:22:29.100Z,986.44
2016-02-11T02:23:29.135Z,986.44
2016-02-11T02:24:29.139Z,986.48
2016-02-11T02:25:29.172Z,986.48
2016-02-11T02:26:29.190Z,986.45
2016-02-11T02:27:29.193Z,986.46
2016-02-11T02:28:29.212Z,986.44
2016-02-11T02:29:29.231Z,986.43
2016-02-11T02:30:29.249Z,986.37
2016-02-11T02:31:29.251Z,986.4
2016-02-11T02:32:29.270Z,986.44
2016-02-11T02:33:29.289Z,986.44
2016-02-11T02:34:29.307Z,986.49
2016-02-11T02:35:29.325Z,986.47
2016-02-11T02:36:29.343Z,986.53
2016-02-11T02:37:29.361Z,986.52
2016-02-11T02:38:29.380Z,986.54
2016-02-11T02:39:29.398Z,986.55
2016-02-11T02:40:29.417Z,986.6
2016-02-11T02:41:29.419Z,986.64
2016-02-11T02:42:29.452Z,986.65
2016-02-11T02:43:29.455Z,986.66
2016-02-11T02:44:29.474Z,986.66
2016-02-11T02:45:29.492Z,986.71
2016-02-11T02:46:29.511Z,986.71
2016-02-11T02:47:29.530Z,986.73
2016-02-11T02:48:29.547Z,986.77
2016-02-11T02:49:29.566Z,986.76
2016-02-11T02:50:29.584Z,986.8
2016-02-11T02:51:29.587Z,986.78
2016-02-11T02:52:29.604Z,986.81
2016-02-11T02:53:29.623Z,986.82
2016-02-11T02:54:29.644Z,986.79
2016-02-11T02:55:29.664Z,986.82
2016-02-11T02:56:29.683Z,986.85
2016-02-11T02:57:29.700Z,986.85
2016-02-11T02:58:29.707Z,986.85
2016-02-11T02:59:29.725Z,986.9
2016-02-11T03:00:29.743Z,986.93
2016-02-11T03:01:29.762Z,986.94
2016-02-11T03:02:29.781Z,986.94
2016-02-11T03:03:29.799Z,986.96
2016-02-11T03:04:29.808Z,986.93
2016-02-11T03:05:29.842Z,986.96
2016-02-11T03:06:29.846Z,986.93
2016-02-11T03:07:29.864Z,986.97
2016-02-11T03:08:29.883Z,986.94
2016-02-11T03:09:29.901Z,986.97
2016-02-11T03:10:29.903Z,986.99
2016-02-11T03:11:29.922Z,986.96
2016-02-11T03:12:29.940Z,986.98
2016-02-11T03:13:29.958Z,987
2016-02-11T03:14:29.978Z,986.99
2016-02-11T03:15:29.995Z,987.01
2016-02-11T03:16:30.015Z,986.98
2016-02-11T03:17:30.022Z,987.03
2016-02-11T03:18:30.040Z,987.08
2016-02-11T03:19:30.058Z,987.1
2016-02-11T03:20:30.078Z,987.1
2016-02-11T03:21:30.095Z,987.16
2016-02-11T03:22:30.115Z,987.08
2016-02-11T03:23:30.117Z,987.11
2016-02-11T03:24:30.138Z,987.14
2016-02-11T03:25:30.156Z,987.1
2016-02-11T03:26:30.190Z,987.19
2016-02-11T03:27:30.193Z,987.2
2016-02-11T03:28:30.213Z,987.26
2016-02-11T03:29:30.231Z,987.24
2016-02-11T03:30:30.234Z,987.21
2016-02-11T03:31:30.251Z,987.26
2016-02-11T03:32:30.270Z,987.31
2016-02-11T03:33:30.288Z,987.34
2016-02-11T03:34:30.307Z,987.32
2016-02-11T03:35:30.325Z,987.34
2016-02-11T03:36:30.359Z,987.33
2016-02-11T03:37:30.363Z,987.36
2016-02-11T03:38:30.382Z,987.32
2016-02-11T03:39:30.384Z,987.34
2016-02-11T03:40:30.401Z,987.4
2016-02-11T03:41:30.420Z,987.35
2016-02-11T03:42:30.439Z,987.4
2016-02-11T03:43:30.457Z,987.37
2016-02-11T03:44:30.476Z,987.39
2016-02-11T03:45:30.493Z,987.36
2016-02-11T03:46:30.512Z,987.4
2016-02-11T03:47:30.515Z,987.35
2016-02-11T03:48:30.534Z,987.4
2016-02-11T03:49:30.551Z,987.41
2016-02-11T03:50:30.585Z,987.44
2016-02-11T03:51:30.587Z,987.4
2016-02-11T03:52:30.606Z,987.44
2016-02-11T03:53:30.625Z,987.47
2016-02-11T03:54:30.643Z,987.44
2016-02-11T03:55:30.655Z,987.46
2016-02-11T03:56:30.674Z,987.46
2016-02-11T03:57:30.691Z,987.51
2016-02-11T03:58:30.711Z,987.55
2016-02-11T03:59:30.713Z,987.54
2016-02-11T04:00:30.732Z,987.54
2016-02-11T04:01:30.749Z,987.6
2016-02-11T04:02:30.769Z,987.54
2016-02-11T04:03:30.786Z,987.59
2016-02-11T04:04:30.805Z,987.6
2016-02-11T04:05:30.824Z,987.61
2016-02-11T04:06:30.842Z,987.66
2016-02-11T04:07:30.860Z,987.6
2016-02-11T04:08:30.865Z,987.62
2016-02-11T04:09:30.882Z,987.64
2016-02-11T04:10:30.901Z,987.67
2016-02-11T04:11:30.919Z,987.71
2016-02-11T04:12:30.937Z,987.73
2016-02-11T04:13:30.958Z,987.68
2016-02-11T04:14:30.961Z,987.66
2016-02-11T04:15:30.979Z,987.74
2016-02-11T04:16:30.997Z,987.71
2016-02-11T04:17:31.015Z,987.69
2016-02-11T04:18:31.033Z,987.71
2016-02-11T04:19:31.052Z,987.7
2016-02-11T04:20:31.071Z,987.69
2016-02-11T04:21:31.088Z,987.7
2016-02-11T04:22:31.092Z,987.73
2016-02-11T04:23:31.111Z,987.73
2016-02-11T04:24:31.144Z,987.79
2016-02-11T04:25:31.147Z,987.84
2016-02-11T04:26:31.166Z,987.81
2016-02-11T04:27:31.188Z,987.85
2016-02-11T04:28:31.191Z,987.84
2016-02-11T04:29:31.210Z,987.89
2016-02-11T04:30:31.228Z,987.91
2016-02-11T04:31:31.246Z,987.9
2016-02-11T04:32:31.265Z,987.89
2016-02-11T04:33:31.282Z,987.97
2016-02-11T04:34:31.302Z,987.96
2016-02-11T04:35:31.320Z,987.99
2016-02-11T04:36:31.323Z,988.02
2016-02-11T04:37:31.340Z,987.98
2016-02-11T04:38:31.358Z,988.03
2016-02-11T04:39:31.380Z,988.04
2016-02-11T04:40:31.398Z,988.06
2016-02-11T04:41:31.416Z,988.07
2016-02-11T04:42:31.434Z,988.05
2016-02-11T04:43:31.436Z,988.09
2016-02-11T04:44:31.455Z,988.14
2016-02-11T04:45:31.474Z,988.07
2016-02-11T04:46:31.492Z,988.09
2016-02-11T04:47:31.512Z,988.14
2016-02-11T04:48:31.530Z,988.09
2016-02-11T04:49:31.549Z,988.08
2016-02-11T04:50:31.567Z,988.13
2016-02-11T04:51:31.570Z,988.11
2016-02-11T04:52:31.587Z,988.15
2016-02-11T04:53:31.606Z,988.16
2016-02-11T04:54:31.625Z,988.15
2016-02-11T04:55:31.643Z,988.16
2016-02-11T04:56:31.646Z,988.18
2016-02-11T04:57:31.669Z,988.2
2016-02-11T04:58:31.686Z,988.18
2016-02-11T04:59:31.707Z,988.19
2016-02-11T05:00:31.726Z,988.17
2016-02-11T05:01:31.729Z,988.19
2016-02-11T05:02:31.746Z,988.2
2016-02-11T05:03:31.765Z,988.23
2016-02-11T05:04:31.987Z,988.26
2016-02-11T05:05:31.803Z,988.27
2016-02-11T05:06:31.821Z,988.24
2016-02-11T05:07:31.825Z,988.32
2016-02-11T05:08:31.842Z,988.36
2016-02-11T05:09:31.861Z,988.34
2016-02-11T05:10:31.880Z,988.34
2016-02-11T05:11:31.898Z,988.35
2016-02-11T05:12:31.916Z,988.33
2016-02-11T05:13:31.934Z,988.38
2016-02-11T05:14:31.936Z,988.38
2016-02-11T05:15:31.956Z,988.37
2016-02-11T05:16:31.974Z,988.35
2016-02-11T05:17:31.992Z,988.36
2016-02-11T05:18:32.010Z,988.41
2016-02-11T05:19:32.029Z,988.41
2016-02-11T05:20:32.046Z,988.41
2016-02-11T05:21:32.066Z,988.39
2016-02-11T05:22:32.068Z,988.41
2016-02-11T05:23:32.086Z,988.43
2016-02-11T05:24:32.104Z,988.42
2016-02-11T05:25:32.133Z,988.45
2016-02-11T05:26:32.135Z,988.45
2016-02-11T05:27:32.154Z,988.41
2016-02-11T05:28:32.172Z,988.43
2016-02-11T05:29:32.190Z,988.49
2016-02-11T05:30:32.208Z,988.46
2016-02-11T05:31:32.211Z,988.48
2016-02-11T05:32:32.230Z,988.48
2016-02-11T05:33:32.249Z,988.56
2016-02-11T05:34:32.267Z,988.53
2016-02-11T05:35:32.286Z,988.52
2016-02-11T05:36:32.304Z,988.58
2016-02-11T05:37:32.322Z,988.54
2016-02-11T05:38:32.325Z,988.56
2016-02-11T05:39:32.343Z,988.52
2016-02-11T05:40:32.362Z,988.56
2016-02-11T05:41:32.381Z,988.55
2016-02-11T05:42:32.399Z,988.57
2016-02-11T05:43:32.417Z,988.6
2016-02-11T05:44:32.435Z,988.69
2016-02-11T05:45:32.438Z,988.63
2016-02-11T05:46:32.457Z,988.67
2016-02-11T05:47:32.475Z,988.63
2016-02-11T05:48:32.493Z,988.65
2016-02-11T05:49:32.513Z,988.69
2016-02-11T05:50:32.531Z,988.75
2016-02-11T05:51:32.533Z,988.79
2016-02-11T05:52:32.552Z,988.78
2016-02-11T05:53:32.571Z,988.8
2016-02-11T05:54:32.593Z,988.79
2016-02-11T05:55:32.612Z,988.77
2016-02-11T05:56:32.615Z,988.79
2016-02-11T05:57:32.633Z,988.75
2016-02-11T05:58:32.653Z,988.71
2016-02-11T05:59:32.672Z,988.76
2016-02-11T06:00:32.690Z,988.75
2016-02-11T06:01:32.708Z,988.77
2016-02-11T06:02:32.727Z,988.76
2016-02-11T06:03:32.729Z,988.78
2016-02-11T06:04:32.747Z,988.74
2016-02-11T06:05:32.766Z,988.75
2016-02-11T06:06:32.786Z,988.78
2016-02-11T06:07:32.804Z,988.79
2016-02-11T06:08:32.823Z,988.84
2016-02-11T06:09:32.826Z,988.81
2016-02-11T06:10:32.844Z,988.83
2016-02-11T06:11:32.850Z,988.81
2016-02-11T06:12:32.853Z,988.87
2016-02-11T06:13:32.858Z,988.82
2016-02-11T06:14:32.863Z,988.85
2016-02-11T06:15:32.853Z,988.88
2016-02-11T06:16:32.866Z,988.86
2016-02-11T06:17:32.879Z,988.86
2016-02-11T06:18:32.894Z,988.92
2016-02-11T06:19:32.907Z,988.93
2016-02-11T06:20:32.920Z,988.94
2016-02-11T06:21:32.921Z,988.9
2016-02-11T06:22:32.937Z,988.92
2016-02-11T06:23:32.953Z,988.93
2016-02-11T06:24:32.970Z,988.92
2016-02-11T06:25:32.987Z,988.95
2016-02-11T06:26:33.007Z,988.93
2016-02-11T06:27:33.024Z,988.93
2016-02-11T06:28:33.026Z,988.93
2016-02-11T06:29:33.043Z,988.9
2016-02-11T06:30:33.062Z,988.94
2016-02-11T06:31:33.080Z,988.96
2016-02-11T06:32:33.098Z,988.97
2016-02-11T06:33:33.116Z,989.02
2016-02-11T06:34:33.134Z,989.06
2016-02-11T06:35:33.139Z,989.02
2016-02-11T06:36:33.157Z,989.05
2016-02-11T06:37:33.174Z,989.08
2016-02-11T06:38:33.193Z,989.11
2016-02-11T06:39:33.211Z,989.1
2016-02-11T06:40:33.230Z,989.11
2016-02-11T06:41:33.232Z,989.15
2016-02-11T06:42:33.251Z,989.18
2016-02-11T06:43:33.271Z,989.19
2016-02-11T06:44:33.289Z,989.19
2016-02-11T06:45:33.308Z,989.23
2016-02-11T06:46:33.325Z,989.21
2016-02-11T06:47:33.328Z,989.2
2016-02-11T06:48:33.347Z,989.23
2016-02-11T06:49:33.380Z,989.21
2016-02-11T06:50:33.384Z,989.23
2016-02-11T06:51:33.402Z,989.25
2016-02-11T06:52:33.406Z,989.28
2016-02-11T06:53:33.440Z,989.26
2016-02-11T06:54:33.449Z,989.25
2016-02-11T06:55:33.467Z,989.28
2016-02-11T06:56:33.484Z,989.26
2016-02-11T06:57:33.504Z,989.28
2016-02-11T06:58:33.506Z,989.29
2016-02-11T06:59:33.524Z,989.3
2016-02-11T07:00:33.544Z,989.28
2016-02-11T07:01:33.563Z,989.28
2016-02-11T07:02:33.581Z,989.28
2016-02-11T07:03:33.599Z,989.36
2016-02-11T07:04:33.602Z,989.38
2016-02-11T07:05:33.621Z,989.35
2016-02-11T07:06:33.638Z,989.34
2016-02-11T07:07:33.657Z,989.32
2016-02-11T07:08:33.692Z,989.39
2016-02-11T07:09:33.695Z,989.35
2016-02-11T07:10:33.697Z,989.4
2016-02-11T07:11:33.716Z,989.4
2016-02-11T07:12:33.733Z,989.45
2016-02-11T07:13:33.753Z,989.43
2016-02-11T07:14:33.771Z,989.45
2016-02-11T07:15:33.789Z,989.45
2016-02-11T07:16:33.807Z,989.47
2016-02-11T07:17:33.825Z,989.55
2016-02-11T07:18:33.828Z,989.48
2016-02-11T07:19:33.846Z,989.49
2016-02-11T07:20:33.865Z,989.47
2016-02-11T07:21:33.899Z,989.49
2016-02-11T07:22:33.902Z,989.53
2016-02-11T07:23:33.910Z,989.59
2016-02-11T07:24:33.927Z,989.54
2016-02-11T07:25:33.946Z,989.55
2016-02-11T07:26:33.965Z,989.57
2016-02-11T07:27:33.982Z,989.58
2016-02-11T07:28:34.000Z,989.58
2016-02-11T07:29:34.020Z,989.58
2016-02-11T07:30:34.022Z,989.61
2016-02-11T07:31:34.040Z,989.65
2016-02-11T07:32:34.059Z,989.58
2016-02-11T07:33:34.077Z,989.61
2016-02-11T07:34:34.095Z,989.61
2016-02-11T07:35:34.114Z,989.6
2016-02-11T07:36:34.132Z,989.61
2016-02-11T07:37:34.134Z,989.63
2016-02-11T07:38:34.153Z,989.61
2016-02-11T07:39:34.172Z,989.52
2016-02-11T07:40:34.205Z,989.62
2016-02-11T07:41:34.208Z,989.64
2016-02-11T07:42:34.212Z,989.67
2016-02-11T07:43:34.229Z,989.6
2016-02-11T07:44:34.264Z,989.6
2016-02-11T07:45:34.273Z,989.61
2016-02-11T07:46:34.290Z,989.65
2016-02-11T07:47:34.293Z,989.64
2016-02-11T07:48:34.312Z,989.65
2016-02-11T07:49:34.330Z,989.67
2016-02-11T07:50:34.348Z,989.64
2016-02-11T07:51:34.366Z,989.65
2016-02-11T07:52:34.384Z,989.65
2016-02-11T07:53:34.403Z,989.68
2016-02-11T07:54:34.408Z,989.7
2016-02-11T07:55:34.429Z,989.72
2016-02-11T07:56:34.450Z,989.73
2016-02-11T07:57:34.453Z,989.7
2016-02-11T07:58:34.472Z,989.73
2016-02-11T07:59:34.489Z,989.72
2016-02-11T08:00:34.508Z,989.72
2016-02-11T08:01:34.525Z,989.71
2016-02-11T08:02:34.546Z,989.76
2016-02-11T08:03:34.548Z,989.8
2016-02-11T08:04:34.567Z,989.8
2016-02-11T08:05:34.584Z,989.81
2016-02-11T08:06:34.603Z,989.82
2016-02-11T08:07:34.621Z,989.83
2016-02-11T08:08:34.640Z,989.79
2016-02-11T08:09:34.658Z,989.83
2016-02-11T08:10:34.676Z,989.9
2016-02-11T08:11:34.680Z,989.93
2016-02-11T08:12:34.714Z,989.88
2016-02-11T08:13:34.716Z,989.86
2016-02-11T08:14:34.734Z,989.91
2016-02-11T08:15:34.753Z,989.89
2016-02-11T08:16:34.772Z,989.88
2016-02-11T08:17:34.789Z,989.89
2016-02-11T08:18:34.792Z,989.87
2016-02-11T08:19:34.812Z,989.83
2016-02-11T08:20:34.829Z,989.84
2016-02-11T08:21:34.849Z,989.86
2016-02-11T08:22:34.867Z,989.86
2016-02-11T08:23:34.884Z,989.9
2016-02-11T08:24:34.903Z,989.92
2016-02-11T08:25:34.906Z,989.95
2016-02-11T08:26:34.927Z,989.98
2016-02-11T08:27:34.945Z,989.98
2016-02-11T08:28:34.964Z,989.97
2016-02-11T08:29:34.982Z,989.97
2016-02-11T08:30:35.000Z,990
2016-02-11T08:31:35.003Z,989.98
2016-02-11T08:32:35.037Z,989.99
2016-02-11T08:33:35.040Z,989.98
2016-02-11T08:34:35.058Z,990.09
2016-02-11T08:35:35.076Z,990.1
2016-02-11T08:36:35.094Z,990.07
2016-02-11T08:37:35.113Z,990.11
2016-02-11T08:38:35.132Z,990.15
2016-02-11T08:39:35.150Z,990.24
2016-02-11T08:40:35.152Z,990.17
2016-02-11T08:41:35.171Z,990.19
2016-02-11T08:42:35.189Z,990.13
2016-02-11T08:43:35.208Z,990.13
2016-02-11T08:44:35.226Z,990.14
2016-02-11T08:45:35.244Z,990.08
2016-02-11T08:46:35.262Z,990.17
2016-02-11T08:47:35.280Z,990.08
2016-02-11T08:48:35.283Z,990.13
2016-02-11T08:49:35.302Z,990.11
2016-02-11T08:50:35.321Z,990.12
2016-02-11T08:51:35.338Z,990.11
2016-02-11T08:52:35.357Z,990.16
2016-02-11T08:53:35.375Z,990.16
2016-02-11T08:54:35.393Z,990.18
2016-02-11T08:55:35.411Z,990.2
2016-02-11T08:56:35.416Z,990.15
2016-02-11T08:57:35.440Z,990.22
2016-02-11T08:58:35.459Z,990.21
2016-02-11T08:59:35.477Z,990.18
2016-02-11T09:00:35.496Z,990.14
2016-02-11T09:01:35.498Z,990.13
2016-02-11T09:02:35.518Z,990.11
2016-02-11T09:03:35.535Z,990.12
2016-02-11T09:04:35.556Z,990.12
2016-02-11T09:05:35.573Z,990.18
2016-02-11T09:06:35.608Z,990.18
2016-02-11T09:07:35.610Z,990.21
2016-02-11T09:08:35.628Z,990.24
2016-02-11T09:09:35.647Z,990.26
2016-02-11T09:10:35.650Z,990.31
2016-02-11T09:11:35.668Z,990.31
2016-02-11T09:12:35.686Z,990.33
2016-02-11T09:13:35.705Z,990.37
2016-02-11T09:14:35.724Z,990.28
2016-02-11T09:15:35.743Z,990.29
2016-02-11T09:16:35.761Z,990.32
2016-02-11T09:17:35.779Z,990.38
2016-02-11T09:18:35.798Z,990.34
2016-02-11T09:19:35.816Z,990.32
2016-02-11T09:20:35.822Z,990.39
2016-02-11T09:21:35.841Z,990.34
2016-02-11T09:22:35.860Z,990.36
2016-02-11T09:23:35.877Z,990.39
2016-02-11T09:24:35.896Z,990.43
2016-02-11T09:25:35.914Z,990.43
2016-02-11T09:26:35.918Z,990.44
2016-02-11T09:27:35.951Z,990.44
2016-02-11T09:28:35.954Z,990.45
2016-02-11T09:29:35.974Z,990.52
2016-02-11T09:30:35.985Z,990.43
2016-02-11T09:31:36.003Z,990.45
2016-02-11T09:32:36.022Z,990.45
2016-02-11T09:33:36.041Z,990.46
2016-02-11T09:34:36.059Z,990.5
2016-02-11T09:35:36.077Z,990.42
2016-02-11T09:36:36.095Z,990.45
2016-02-11T09:37:36.113Z,990.52
2016-02-11T09:38:36.132Z,990.48
2016-02-11T09:39:36.150Z,990.59
2016-02-11T09:40:36.153Z,990.57
2016-02-11T09:41:36.171Z,990.48
2016-02-11T09:42:36.189Z,990.61
2016-02-11T09:43:36.208Z,990.61
2016-02-11T09:44:36.242Z,990.59
2016-02-11T09:45:36.244Z,990.67
2016-02-11T09:46:36.263Z,990.6
2016-02-11T09:47:36.283Z,990.64
2016-02-11T09:48:36.301Z,990.63
2016-02-11T09:49:36.319Z,990.66
2016-02-11T09:50:36.339Z,990.68
2016-02-11T09:51:36.342Z,990.66
2016-02-11T09:52:36.360Z,990.68
2016-02-11T09:53:36.378Z,990.68
2016-02-11T09:54:36.396Z,990.75
2016-02-11T09:55:36.414Z,990.68
2016-02-11T09:56:36.433Z,990.79
2016-02-11T09:57:36.452Z,990.71
2016-02-11T09:58:36.470Z,990.74
2016-02-11T09:59:36.488Z,990.7
2016-02-11T10:00:36.507Z,990.74
2016-02-11T10:01:36.511Z,990.71
2016-02-11T10:02:36.529Z,990.71
2016-02-11T10:03:36.563Z,990.75
2016-02-11T10:04:36.613Z,990.72
2016-02-11T10:05:36.584Z,990.78
2016-02-11T10:06:36.603Z,990.79
2016-02-11T10:07:36.620Z,990.74
2016-02-11T10:08:36.640Z,990.78
2016-02-11T10:09:36.658Z,990.84
2016-02-11T10:10:36.675Z,990.84
2016-02-11T10:11:36.695Z,990.82
2016-02-11T10:12:36.712Z,990.82
2016-02-11T10:13:36.731Z,990.8
2016-02-11T10:14:36.750Z,990.76
2016-02-11T10:15:36.753Z,990.79
2016-02-11T10:16:36.771Z,990.79
2016-02-11T10:17:36.790Z,990.83
2016-02-11T10:18:36.808Z,990.77
2016-02-11T10:19:36.825Z,990.85
2016-02-11T10:20:36.860Z,990.81
2016-02-11T10:21:36.862Z,990.83
2016-02-11T10:22:36.881Z,990.78
2016-02-11T10:23:36.900Z,990.87
2016-02-11T10:24:36.917Z,990.83
2016-02-11T10:25:36.936Z,990.82
2016-02-11T10:26:36.955Z,990.82
2016-02-11T10:27:36.972Z,990.83
2016-02-11T10:28:36.991Z,990.83
2016-02-11T10:29:37.009Z,990.83
2016-02-11T10:30:37.028Z,990.86
2016-02-11T10:31:37.031Z,990.84
2016-02-11T10:32:37.050Z,990.89
2016-02-11T10:33:37.069Z,990.88
2016-02-11T10:34:37.103Z,990.84
2016-02-11T10:35:37.107Z,990.89
2016-02-11T10:36:37.126Z,990.93
2016-02-11T10:37:37.159Z,990.91
2016-02-11T10:38:37.162Z,990.92
2016-02-11T10:39:37.181Z,990.99
2016-02-11T10:40:37.199Z,991
2016-02-11T10:41:37.218Z,990.93
2016-02-11T10:42:37.220Z,991.03
2016-02-11T10:43:37.255Z,991.06
2016-02-11T10:44:37.273Z,991.03
2016-02-11T10:45:37.292Z,991.15
2016-02-11T10:46:37.295Z,991.02
2016-02-11T10:47:37.328Z,991.02
2016-02-11T10:48:37.331Z,990.99
2016-02-11T10:49:37.350Z,990.99
2016-02-11T10:50:37.368Z,990.98
2016-02-11T10:51:37.387Z,991.1
2016-02-11T10:52:37.406Z,991.04
2016-02-11T10:53:37.426Z,990.99
2016-02-11T10:54:37.444Z,991.01
2016-02-11T10:55:37.462Z,990.95
2016-02-11T10:56:37.481Z,991.01
2016-02-11T10:57:37.498Z,991
2016-02-11T10:58:37.519Z,991
2016-02-11T10:59:37.522Z,991.03
2016-02-11T11:00:37.556Z,991
2016-02-11T11:01:37.558Z,991.04
2016-02-11T11:02:37.578Z,991.02
2016-02-11T11:03:37.597Z,990.99
2016-02-11T11:04:37.632Z,991.06
2016-02-11T11:05:37.635Z,991.03
2016-02-11T11:06:37.652Z,991.03
2016-02-11T11:07:37.671Z,991.05
2016-02-11T11:08:37.690Z,991.08
2016-02-11T11:09:37.707Z,991.06
2016-02-11T11:10:37.726Z,991.02
2016-02-11T11:11:37.744Z,991.01
2016-02-11T11:12:37.763Z,991.05
2016-02-11T11:13:37.782Z,991.03
2016-02-11T11:14:37.784Z,991.03
2016-02-11T11:15:37.801Z,991
2016-02-11T11:16:37.821Z,991.03
2016-02-11T11:17:37.840Z,991.01
2016-02-11T11:18:37.857Z,991.04
2016-02-11T11:19:37.876Z,991.02
2016-02-11T11:20:37.894Z,991.07
2016-02-11T11:21:37.913Z,991.05
2016-02-11T11:22:37.931Z,991.06
2016-02-11T11:23:37.949Z,991.01
2016-02-11T11:24:37.968Z,991.04
2016-02-11T11:25:37.987Z,990.99
2016-02-11T11:26:38.001Z,991.03
2016-02-11T11:27:38.020Z,991.07
2016-02-11T11:28:38.038Z,990.98
2016-02-11T11:29:38.056Z,990.94
2016-02-11T11:30:38.075Z,991.01
2016-02-11T11:31:38.092Z,990.98
2016-02-11T11:32:38.112Z,990.95
2016-02-11T11:33:38.130Z,990.97
2016-02-11T11:34:38.144Z,990.92
2016-02-11T11:35:38.164Z,990.89
2016-02-11T11:36:38.182Z,990.91
2016-02-11T11:37:38.199Z,990.93
2016-02-11T11:38:38.219Z,990.9
2016-02-11T11:39:38.236Z,990.99
2016-02-11T11:40:38.255Z,990.9
2016-02-11T11:41:38.273Z,990.91
2016-02-11T11:42:38.291Z,990.89
2016-02-11T11:43:38.310Z,990.9
2016-02-11T11:44:38.330Z,990.94
2016-02-11T11:45:38.347Z,990.95
2016-02-11T11:46:38.366Z,990.95
2016-02-11T11:47:38.369Z,990.91
2016-02-11T11:48:38.402Z,990.91
2016-02-11T11:49:38.405Z,990.92
2016-02-11T11:50:38.433Z,990.87
2016-02-11T11:51:38.453Z,990.93
2016-02-11T11:52:38.455Z,990.88
2016-02-11T11:53:38.494Z,990.85
2016-02-11T11:54:38.496Z,990.82
2016-02-11T11:55:38.530Z,990.86
2016-02-11T11:56:38.533Z,990.85
2016-02-11T11:57:38.559Z,990.84
2016-02-11T11:58:38.976Z,990.83
2016-02-11T11:59:38.650Z,990.8
2016-02-11T12:00:38.606Z,990.79
2016-02-11T12:01:38.624Z,990.76
2016-02-11T12:02:38.642Z,990.81
2016-02-11T12:03:38.661Z,990.8
2016-02-11T12:04:38.679Z,990.8
2016-02-11T12:05:38.713Z,990.78
2016-02-11T12:06:38.731Z,990.79
2016-02-11T12:07:38.733Z,990.84
2016-02-11T12:08:38.752Z,990.86
2016-02-11T12:09:38.771Z,990.78
2016-02-11T12:10:38.789Z,990.8
2016-02-11T12:11:38.808Z,990.76
2016-02-11T12:12:38.825Z,990.86
2016-02-11T12:13:38.844Z,990.83
2016-02-11T12:14:38.877Z,990.83
2016-02-11T12:15:38.880Z,990.88
2016-02-11T12:16:38.899Z,990.81
2016-02-11T12:17:38.918Z,990.84
2016-02-11T12:18:38.936Z,990.82
2016-02-11T12:19:38.954Z,990.78
2016-02-11T12:20:38.972Z,990.83
2016-02-11T12:21:38.990Z,990.78
2016-02-11T12:22:39.009Z,990.78
2016-02-11T12:23:39.028Z,990.79
2016-02-11T12:24:39.048Z,990.79
2016-02-11T12:25:39.065Z,990.76
2016-02-11T12:26:39.084Z,990.73
2016-02-11T12:27:39.088Z,990.8
2016-02-11T12:28:39.108Z,990.82
2016-02-11T12:29:39.126Z,990.69
2016-02-11T12:30:39.161Z,990.75
2016-02-11T12:31:39.168Z,990.69